バンギ の空港の天気 - METARとTAF

バンギ・ムポコ国際空港 ( FEFF / BGF ) - 中央アフリカ バンギ
飛行場実況気象(Metar)
観測時間12/09 14:00 WAT (12/09 13:00 UTC)
風向・風速東 4m/s
視程10km以上
天気現象
なし
気温33℃
湿度28%
気圧1007hPa
METARFEFF 091300Z 08008KT CAVOK 33/12 Q1007 NOSIG
過去の天気等 Google飛行場航空写真 Wunderground天気予報

過去48時間のMETAR

飛行場予報(TAF)
発表時間: 12/09 12:00 WAT (12/09 11:00 UTC)
予報対象時間: 9日13時 WAT ~ 10日19時 WAT
風向・風速北北西 6m/s
視程10km以上
なし
9日15時 WAT ~ 9日17時 WAT に徐々に
視程3000m
天気現象煙霧煙
9日19時 WAT ~ 9日21時 WAT に徐々に
風向・風速静穏
視程10km以上
なし
10日2時 WAT ~ 10日4時 WAT に徐々に
視程2000m
天気現象もや
10日8時 WAT ~ 10日10時 WAT に徐々に
風向・風速北西 6m/s
視程7000m
なし
TAF FEFF 091100Z 0912/1018 34012KT CAVOK
BECMG 0914/0916 3000 HZFU
BECMG 0918/0920 00000KT CAVOK
BECMG 1001/1003 2000 BR
BECMG 1007/1009 32012KT 7000 NSC